sensor_id;sensor_type;location;lat;lon;timestamp;temperature;humidity
6118;DHT22;3089;48.202;11.510;2023-08-30T00:00:57;13.50;99.90
6118;DHT22;3089;48.202;11.510;2023-08-30T00:03:25;13.60;99.90
6118;DHT22;3089;48.202;11.510;2023-08-30T00:05:53;13.50;99.90
6118;DHT22;3089;48.202;11.510;2023-08-30T00:08:21;13.50;99.90
6118;DHT22;3089;48.202;11.510;2023-08-30T00:10:51;13.60;99.90
6118;DHT22;3089;48.202;11.510;2023-08-30T00:13:18;13.50;99.90
6118;DHT22;3089;48.202;11.510;2023-08-30T00:15:46;13.50;99.90
6118;DHT22;3089;48.202;11.510;2023-08-30T00:18:14;13.50;99.90
6118;DHT22;3089;48.202;11.510;2023-08-30T00:20:42;13.50;99.90
6118;DHT22;3089;48.202;11.510;2023-08-30T00:23:10;13.50;99.90
6118;DHT22;3089;48.202;11.510;2023-08-30T00:25:38;13.50;99.90
6118;DHT22;3089;48.202;11.510;2023-08-30T00:28:07;13.50;99.90
6118;DHT22;3089;48.202;11.510;2023-08-30T00:30:35;13.50;99.90
6118;DHT22;3089;48.202;11.510;2023-08-30T00:33:04;13.40;99.90
6118;DHT22;3089;48.202;11.510;2023-08-30T00:35:32;13.50;99.90
6118;DHT22;3089;48.202;11.510;2023-08-30T00:38:00;13.40;99.90
6118;DHT22;3089;48.202;11.510;2023-08-30T00:40:28;13.50;99.90
6118;DHT22;3089;48.202;11.510;2023-08-30T00:42:56;13.50;99.90
6118;DHT22;3089;48.202;11.510;2023-08-30T00:45:26;13.40;99.90
6118;DHT22;3089;48.202;11.510;2023-08-30T00:47:54;13.50;99.90
6118;DHT22;3089;48.202;11.510;2023-08-30T00:50:22;13.50;99.90
6118;DHT22;3089;48.202;11.510;2023-08-30T00:52:51;13.50;99.90
6118;DHT22;3089;48.202;11.510;2023-08-30T00:55:18;13.50;99.90
6118;DHT22;3089;48.202;11.510;2023-08-30T00:57:46;13.50;99.90
6118;DHT22;3089;48.202;11.510;2023-08-30T01:00:14;13.40;99.90
6118;DHT22;3089;48.202;11.510;2023-08-30T01:02:44;13.40;99.90
6118;DHT22;3089;48.202;11.510;2023-08-30T01:05:13;13.50;99.90
6118;DHT22;3089;48.202;11.510;2023-08-30T01:07:41;13.50;99.90
6118;DHT22;3089;48.202;11.510;2023-08-30T01:10:09;13.50;99.90
6118;DHT22;3089;48.202;11.510;2023-08-30T01:12:42;13.40;99.90
6118;DHT22;3089;48.202;11.510;2023-08-30T01:15:14;13.50;99.90
6118;DHT22;3089;48.202;11.510;2023-08-30T01:17:47;13.50;99.90
6118;DHT22;3089;48.202;11.510;2023-08-30T01:20:16;13.50;99.90
6118;DHT22;3089;48.202;11.510;2023-08-30T01:22:52;13.40;99.90
6118;DHT22;3089;48.202;11.510;2023-08-30T01:25:31;13.50;99.90
6118;DHT22;3089;48.202;11.510;2023-08-30T01:28:04;13.50;99.90
6118;DHT22;3089;48.202;11.510;2023-08-30T01:30:34;13.40;99.90
6118;DHT22;3089;48.202;11.510;2023-08-30T01:33:05;13.50;99.90
6118;DHT22;3089;48.202;11.510;2023-08-30T01:35:33;13.40;99.90
6118;DHT22;3089;48.202;11.510;2023-08-30T01:38:03;13.50;99.90
6118;DHT22;3089;48.202;11.510;2023-08-30T01:40:35;13.50;99.90
6118;DHT22;3089;48.202;11.510;2023-08-30T01:43:06;13.40;99.90
6118;DHT22;3089;48.202;11.510;2023-08-30T01:45:36;13.50;99.90
6118;DHT22;3089;48.202;11.510;2023-08-30T01:48:08;13.40;99.90
6118;DHT22;3089;48.202;11.510;2023-08-30T01:50:38;13.40;99.90
6118;DHT22;3089;48.202;11.510;2023-08-30T01:53:08;13.40;99.90
6118;DHT22;3089;48.202;11.510;2023-08-30T01:55:37;13.40;99.90
6118;DHT22;3089;48.202;11.510;2023-08-30T01:58:07;13.40;99.90
6118;DHT22;3089;48.202;11.510;2023-08-30T02:00:37;13.40;99.90
6118;DHT22;3089;48.202;11.510;2023-08-30T02:03:09;13.40;99.90
6118;DHT22;3089;48.202;11.510;2023-08-30T02:05:48;13.30;99.90
6118;DHT22;3089;48.202;11.510;2023-08-30T02:08:17;13.40;99.90
6118;DHT22;3089;48.202;11.510;2023-08-30T02:10:52;13.30;99.90
6118;DHT22;3089;48.202;11.510;2023-08-30T02:13:26;13.30;99.90
6118;DHT22;3089;48.202;11.510;2023-08-30T02:15:55;13.40;99.90
6118;DHT22;3089;48.202;11.510;2023-08-30T02:18:25;13.40;99.90
6118;DHT22;3089;48.202;11.510;2023-08-30T02:20:53;13.40;99.90
6118;DHT22;3089;48.202;11.510;2023-08-30T02:23:23;13.30;99.90
6118;DHT22;3089;48.202;11.510;2023-08-30T02:25:53;13.30;99.90
6118;DHT22;3089;48.202;11.510;2023-08-30T02:28:21;13.40;99.90
6118;DHT22;3089;48.202;11.510;2023-08-30T02:30:53;13.30;99.90
6118;DHT22;3089;48.202;11.510;2023-08-30T02:33:21;13.30;99.90
6118;DHT22;3089;48.202;11.510;2023-08-30T02:35:49;13.30;99.90
6118;DHT22;3089;48.202;11.510;2023-08-30T02:38:17;13.40;99.90
6118;DHT22;3089;48.202;11.510;2023-08-30T02:40:44;13.30;99.90
6118;DHT22;3089;48.202;11.510;2023-08-30T02:43:12;13.30;99.90
6118;DHT22;3089;48.202;11.510;2023-08-30T02:45:41;13.30;99.90
6118;DHT22;3089;48.202;11.510;2023-08-30T02:48:10;13.30;99.90
6118;DHT22;3089;48.202;11.510;2023-08-30T02:50:39;13.30;99.90
6118;DHT22;3089;48.202;11.510;2023-08-30T02:53:06;13.30;99.90
6118;DHT22;3089;48.202;11.510;2023-08-30T02:55:35;13.30;99.90
6118;DHT22;3089;48.202;11.510;2023-08-30T02:58:03;13.30;99.90
6118;DHT22;3089;48.202;11.510;2023-08-30T03:00:31;13.30;99.90
6118;DHT22;3089;48.202;11.510;2023-08-30T03:03:00;13.30;99.90
6118;DHT22;3089;48.202;11.510;2023-08-30T03:05:30;13.30;99.90
6118;DHT22;3089;48.202;11.510;2023-08-30T03:07:58;13.30;99.90
6118;DHT22;3089;48.202;11.510;2023-08-30T03:10:26;13.30;99.90
6118;DHT22;3089;48.202;11.510;2023-08-30T03:12:54;13.30;99.90
6118;DHT22;3089;48.202;11.510;2023-08-30T03:15:21;13.20;99.90
6118;DHT22;3089;48.202;11.510;2023-08-30T03:17:49;13.20;99.90
6118;DHT22;3089;48.202;11.510;2023-08-30T03:20:17;13.20;99.90
6118;DHT22;3089;48.202;11.510;2023-08-30T03:22:46;13.20;99.90
6118;DHT22;3089;48.202;11.510;2023-08-30T03:25:14;13.20;99.90
6118;DHT22;3089;48.202;11.510;2023-08-30T03:27:44;13.20;99.90
6118;DHT22;3089;48.202;11.510;2023-08-30T03:30:12;13.20;99.90
6118;DHT22;3089;48.202;11.510;2023-08-30T03:32:40;13.20;99.90
6118;DHT22;3089;48.202;11.510;2023-08-30T03:35:08;13.20;99.90
6118;DHT22;3089;48.202;11.510;2023-08-30T03:37:36;13.20;99.90
6118;DHT22;3089;48.202;11.510;2023-08-30T03:40:06;13.20;99.90
6118;DHT22;3089;48.202;11.510;2023-08-30T03:42:36;13.20;99.90
6118;DHT22;3089;48.202;11.510;2023-08-30T03:45:04;13.20;99.90
6118;DHT22;3089;48.202;11.510;2023-08-30T03:47:33;13.20;99.90
6118;DHT22;3089;48.202;11.510;2023-08-30T03:50:00;13.20;99.90
6118;DHT22;3089;48.202;11.510;2023-08-30T03:52:28;13.20;99.90
6118;DHT22;3089;48.202;11.510;2023-08-30T03:54:56;13.20;99.90
6118;DHT22;3089;48.202;11.510;2023-08-30T03:57:25;13.20;99.90
6118;DHT22;3089;48.202;11.510;2023-08-30T03:59:53;13.20;99.90
6118;DHT22;3089;48.202;11.510;2023-08-30T04:02:21;13.20;99.90
6118;DHT22;3089;48.202;11.510;2023-08-30T04:04:49;13.20;99.90
6118;DHT22;3089;48.202;11.510;2023-08-30T04:07:17;13.20;99.90
6118;DHT22;3089;48.202;11.510;2023-08-30T04:09:45;13.20;99.90
6118;DHT22;3089;48.202;11.510;2023-08-30T04:12:13;13.20;99.90
6118;DHT22;3089;48.202;11.510;2023-08-30T04:14:42;13.20;99.90
6118;DHT22;3089;48.202;11.510;2023-08-30T04:17:10;13.20;99.90
6118;DHT22;3089;48.202;11.510;2023-08-30T04:19:38;13.20;99.90
6118;DHT22;3089;48.202;11.510;2023-08-30T04:22:05;13.10;99.90
6118;DHT22;3089;48.202;11.510;2023-08-30T04:24:33;13.20;99.90
6118;DHT22;3089;48.202;11.510;2023-08-30T04:27:01;13.10;99.90
6118;DHT22;3089;48.202;11.510;2023-08-30T04:29:29;13.10;99.90
6118;DHT22;3089;48.202;11.510;2023-08-30T04:31:58;13.20;99.90
6118;DHT22;3089;48.202;11.510;2023-08-30T04:34:26;13.10;99.90
6118;DHT22;3089;48.202;11.510;2023-08-30T04:36:54;13.20;99.90
6118;DHT22;3089;48.202;11.510;2023-08-30T04:39:22;13.20;99.90
6118;DHT22;3089;48.202;11.510;2023-08-30T04:41:49;13.20;99.90
6118;DHT22;3089;48.202;11.510;2023-08-30T04:44:18;13.20;99.90
6118;DHT22;3089;48.202;11.510;2023-08-30T04:46:50;13.20;99.90
6118;DHT22;3089;48.202;11.510;2023-08-30T04:49:21;13.10;99.90
6118;DHT22;3089;48.202;11.510;2023-08-30T04:51:48;13.10;99.90
6118;DHT22;3089;48.202;11.510;2023-08-30T04:54:16;13.10;99.90
6118;DHT22;3089;48.202;11.510;2023-08-30T04:56:44;13.10;99.90
6118;DHT22;3089;48.202;11.510;2023-08-30T04:59:12;13.10;99.90
6118;DHT22;3089;48.202;11.510;2023-08-30T05:01:40;13.10;99.90
6118;DHT22;3089;48.202;11.510;2023-08-30T05:04:10;13.10;99.90
6118;DHT22;3089;48.202;11.510;2023-08-30T05:06:40;13.20;99.90
6118;DHT22;3089;48.202;11.510;2023-08-30T05:09:07;13.20;99.90
6118;DHT22;3089;48.202;11.510;2023-08-30T05:11:36;13.00;99.90
6118;DHT22;3089;48.202;11.510;2023-08-30T05:14:04;13.10;99.90
6118;DHT22;3089;48.202;11.510;2023-08-30T05:16:32;13.20;99.90
6118;DHT22;3089;48.202;11.510;2023-08-30T05:19:01;13.20;99.90
6118;DHT22;3089;48.202;11.510;2023-08-30T05:21:29;13.20;99.90
6118;DHT22;3089;48.202;11.510;2023-08-30T05:23:58;13.20;99.90
6118;DHT22;3089;48.202;11.510;2023-08-30T05:26:26;13.20;99.90
6118;DHT22;3089;48.202;11.510;2023-08-30T05:28:54;13.10;99.90
6118;DHT22;3089;48.202;11.510;2023-08-30T05:31:21;13.10;99.90
6118;DHT22;3089;48.202;11.510;2023-08-30T05:33:49;13.20;99.90
6118;DHT22;3089;48.202;11.510;2023-08-30T05:36:17;13.10;99.90
6118;DHT22;3089;48.202;11.510;2023-08-30T05:38:45;13.20;99.90
6118;DHT22;3089;48.202;11.510;2023-08-30T05:41:14;13.20;99.90
6118;DHT22;3089;48.202;11.510;2023-08-30T05:43:42;13.20;99.90
6118;DHT22;3089;48.202;11.510;2023-08-30T05:46:10;13.30;99.90
6118;DHT22;3089;48.202;11.510;2023-08-30T05:48:41;13.30;99.90
6118;DHT22;3089;48.202;11.510;2023-08-30T05:51:09;13.30;99.90
6118;DHT22;3089;48.202;11.510;2023-08-30T05:53:37;13.30;99.90
6118;DHT22;3089;48.202;11.510;2023-08-30T05:56:05;13.30;99.90
6118;DHT22;3089;48.202;11.510;2023-08-30T05:58:34;13.30;99.90
6118;DHT22;3089;48.202;11.510;2023-08-30T06:01:02;13.40;99.90
6118;DHT22;3089;48.202;11.510;2023-08-30T06:03:32;13.40;99.90
6118;DHT22;3089;48.202;11.510;2023-08-30T06:06:00;13.40;99.90
6118;DHT22;3089;48.202;11.510;2023-08-30T06:08:29;13.40;99.90
6118;DHT22;3089;48.202;11.510;2023-08-30T06:10:57;13.50;99.90
6118;DHT22;3089;48.202;11.510;2023-08-30T06:13:25;13.50;99.90
6118;DHT22;3089;48.202;11.510;2023-08-30T06:15:54;13.50;99.90
6118;DHT22;3089;48.202;11.510;2023-08-30T06:18:22;13.60;99.90
6118;DHT22;3089;48.202;11.510;2023-08-30T06:20:50;13.50;99.90
6118;DHT22;3089;48.202;11.510;2023-08-30T06:23:18;13.60;99.90
6118;DHT22;3089;48.202;11.510;2023-08-30T06:25:53;13.60;99.90
6118;DHT22;3089;48.202;11.510;2023-08-30T06:28:21;13.60;99.90
6118;DHT22;3089;48.202;11.510;2023-08-30T06:30:49;13.50;99.90
6118;DHT22;3089;48.202;11.510;2023-08-30T06:33:18;13.50;99.90
6118;DHT22;3089;48.202;11.510;2023-08-30T06:35:48;13.60;99.90
6118;DHT22;3089;48.202;11.510;2023-08-30T06:38:17;13.50;99.90
6118;DHT22;3089;48.202;11.510;2023-08-30T06:40:45;13.60;99.90
6118;DHT22;3089;48.202;11.510;2023-08-30T06:43:13;13.60;99.90
6118;DHT22;3089;48.202;11.510;2023-08-30T06:45:41;13.60;99.90
6118;DHT22;3089;48.202;11.510;2023-08-30T06:48:09;13.60;99.90
6118;DHT22;3089;48.202;11.510;2023-08-30T06:50:39;13.60;99.90
6118;DHT22;3089;48.202;11.510;2023-08-30T06:53:07;13.60;99.90
6118;DHT22;3089;48.202;11.510;2023-08-30T06:55:36;13.60;99.90
6118;DHT22;3089;48.202;11.510;2023-08-30T06:58:05;13.60;99.90
6118;DHT22;3089;48.202;11.510;2023-08-30T07:00:33;13.40;99.90
6118;DHT22;3089;48.202;11.510;2023-08-30T07:03:01;13.50;99.90
6118;DHT22;3089;48.202;11.510;2023-08-30T07:05:29;13.60;99.90
6118;DHT22;3089;48.202;11.510;2023-08-30T07:07:58;13.60;99.90
6118;DHT22;3089;48.202;11.510;2023-08-30T07:10:26;13.60;99.90
6118;DHT22;3089;48.202;11.510;2023-08-30T07:12:54;13.60;99.90
6118;DHT22;3089;48.202;11.510;2023-08-30T07:15:22;13.60;99.90
6118;DHT22;3089;48.202;11.510;2023-08-30T07:17:50;13.60;99.90
6118;DHT22;3089;48.202;11.510;2023-08-30T07:20:20;13.70;99.90
6118;DHT22;3089;48.202;11.510;2023-08-30T07:22:48;13.70;99.90
6118;DHT22;3089;48.202;11.510;2023-08-30T07:25:17;13.70;99.90
6118;DHT22;3089;48.202;11.510;2023-08-30T07:27:45;13.80;99.90
6118;DHT22;3089;48.202;11.510;2023-08-30T07:30:13;13.70;99.90
6118;DHT22;3089;48.202;11.510;2023-08-30T07:32:41;13.70;99.90
6118;DHT22;3089;48.202;11.510;2023-08-30T07:35:09;13.80;99.90
6118;DHT22;3089;48.202;11.510;2023-08-30T07:37:40;13.70;99.90
6118;DHT22;3089;48.202;11.510;2023-08-30T07:40:09;13.80;99.90
6118;DHT22;3089;48.202;11.510;2023-08-30T07:42:39;13.80;99.90
6118;DHT22;3089;48.202;11.510;2023-08-30T07:45:07;13.90;99.90
6118;DHT22;3089;48.202;11.510;2023-08-30T07:47:35;13.90;99.90
6118;DHT22;3089;48.202;11.510;2023-08-30T07:50:05;13.90;99.90
6118;DHT22;3089;48.202;11.510;2023-08-30T07:52:33;13.90;99.90
6118;DHT22;3089;48.202;11.510;2023-08-30T07:55:11;14.00;99.90
6118;DHT22;3089;48.202;11.510;2023-08-30T07:57:40;13.90;99.90
6118;DHT22;3089;48.202;11.510;2023-08-30T08:00:09;13.90;99.90
6118;DHT22;3089;48.202;11.510;2023-08-30T08:02:37;14.00;99.90
6118;DHT22;3089;48.202;11.510;2023-08-30T08:05:05;14.00;99.90
6118;DHT22;3089;48.202;11.510;2023-08-30T08:07:33;14.00;99.90
6118;DHT22;3089;48.202;11.510;2023-08-30T08:10:01;14.00;99.90
6118;DHT22;3089;48.202;11.510;2023-08-30T08:12:29;14.10;99.90
6118;DHT22;3089;48.202;11.510;2023-08-30T08:14:58;14.20;99.90
6118;DHT22;3089;48.202;11.510;2023-08-30T08:17:26;14.30;99.90
6118;DHT22;3089;48.202;11.510;2023-08-30T08:19:54;14.40;99.90
6118;DHT22;3089;48.202;11.510;2023-08-30T08:22:21;14.50;99.90
6118;DHT22;3089;48.202;11.510;2023-08-30T08:24:50;14.60;99.90
6118;DHT22;3089;48.202;11.510;2023-08-30T08:27:20;14.70;99.90
6118;DHT22;3089;48.202;11.510;2023-08-30T08:29:48;14.80;99.90
6118;DHT22;3089;48.202;11.510;2023-08-30T08:32:17;14.80;99.90
6118;DHT22;3089;48.202;11.510;2023-08-30T08:34:45;14.80;99.90
6118;DHT22;3089;48.202;11.510;2023-08-30T08:37:12;14.90;99.90
6118;DHT22;3089;48.202;11.510;2023-08-30T08:39:41;15.00;99.90
6118;DHT22;3089;48.202;11.510;2023-08-30T08:42:10;15.00;99.90
6118;DHT22;3089;48.202;11.510;2023-08-30T08:44:38;15.20;99.90
6118;DHT22;3089;48.202;11.510;2023-08-30T08:47:08;15.30;99.90
6118;DHT22;3089;48.202;11.510;2023-08-30T08:49:37;15.10;99.90
6118;DHT22;3089;48.202;11.510;2023-08-30T08:52:06;15.00;99.90
6118;DHT22;3089;48.202;11.510;2023-08-30T08:54:50;14.90;99.90
6118;DHT22;3089;48.202;11.510;2023-08-30T08:57:19;14.80;99.90
6118;DHT22;3089;48.202;11.510;2023-08-30T08:59:47;14.80;99.90
6118;DHT22;3089;48.202;11.510;2023-08-30T09:02:15;14.90;99.90
6118;DHT22;3089;48.202;11.510;2023-08-30T09:04:44;15.00;99.90
6118;DHT22;3089;48.202;11.510;2023-08-30T09:07:12;15.00;99.90
6118;DHT22;3089;48.202;11.510;2023-08-30T09:09:40;15.10;99.90
6118;DHT22;3089;48.202;11.510;2023-08-30T09:12:08;15.30;99.90
6118;DHT22;3089;48.202;11.510;2023-08-30T09:14:36;15.50;99.90
6118;DHT22;3089;48.202;11.510;2023-08-30T09:17:04;15.60;99.90
6118;DHT22;3089;48.202;11.510;2023-08-30T09:19:40;15.50;99.90
6118;DHT22;3089;48.202;11.510;2023-08-30T09:22:08;15.60;99.90
6118;DHT22;3089;48.202;11.510;2023-08-30T09:24:39;15.70;99.90
6118;DHT22;3089;48.202;11.510;2023-08-30T09:27:07;15.60;99.90
6118;DHT22;3089;48.202;11.510;2023-08-30T09:29:35;15.60;99.90
6118;DHT22;3089;48.202;11.510;2023-08-30T09:32:03;15.60;99.90
6118;DHT22;3089;48.202;11.510;2023-08-30T09:34:31;15.80;99.90
6118;DHT22;3089;48.202;11.510;2023-08-30T09:37:01;15.90;99.90
6118;DHT22;3089;48.202;11.510;2023-08-30T09:39:33;15.70;99.90
6118;DHT22;3089;48.202;11.510;2023-08-30T09:42:02;15.60;99.90
6118;DHT22;3089;48.202;11.510;2023-08-30T09:44:30;15.30;99.90
6118;DHT22;3089;48.202;11.510;2023-08-30T09:46:58;15.20;99.90
6118;DHT22;3089;48.202;11.510;2023-08-30T09:49:26;15.10;99.90
6118;DHT22;3089;48.202;11.510;2023-08-30T09:51:54;15.10;99.90
6118;DHT22;3089;48.202;11.510;2023-08-30T09:54:24;15.10;99.90
6118;DHT22;3089;48.202;11.510;2023-08-30T09:57:05;15.00;99.90
6118;DHT22;3089;48.202;11.510;2023-08-30T09:59:33;15.10;99.90
6118;DHT22;3089;48.202;11.510;2023-08-30T10:02:01;15.10;99.90
6118;DHT22;3089;48.202;11.510;2023-08-30T10:04:31;15.10;99.90
6118;DHT22;3089;48.202;11.510;2023-08-30T10:07:02;15.10;99.90
6118;DHT22;3089;48.202;11.510;2023-08-30T10:09:32;15.20;99.90
6118;DHT22;3089;48.202;11.510;2023-08-30T10:12:01;15.20;99.90
6118;DHT22;3089;48.202;11.510;2023-08-30T10:14:31;15.20;99.90
6118;DHT22;3089;48.202;11.510;2023-08-30T10:17:02;15.20;99.90
6118;DHT22;3089;48.202;11.510;2023-08-30T10:19:31;15.20;99.90
6118;DHT22;3089;48.202;11.510;2023-08-30T10:22:02;15.40;99.90
6118;DHT22;3089;48.202;11.510;2023-08-30T10:24:36;15.60;99.90
6118;DHT22;3089;48.202;11.510;2023-08-30T10:27:24;15.90;99.90
6118;DHT22;3089;48.202;11.510;2023-08-30T10:29:52;16.10;99.90
6118;DHT22;3089;48.202;11.510;2023-08-30T10:32:21;15.90;99.90
6118;DHT22;3089;48.202;11.510;2023-08-30T10:34:50;16.20;99.90
6118;DHT22;3089;48.202;11.510;2023-08-30T10:37:22;16.40;99.90
6118;DHT22;3089;48.202;11.510;2023-08-30T10:39:52;16.50;99.90
6118;DHT22;3089;48.202;11.510;2023-08-30T10:42:23;16.70;99.90
6118;DHT22;3089;48.202;11.510;2023-08-30T10:44:51;16.90;99.90
6118;DHT22;3089;48.202;11.510;2023-08-30T10:47:38;17.30;99.90
6118;DHT22;3089;48.202;11.510;2023-08-30T10:50:08;17.50;99.90
6118;DHT22;3089;48.202;11.510;2023-08-30T10:52:37;17.70;99.90
6118;DHT22;3089;48.202;11.510;2023-08-30T10:55:07;17.60;99.90
6118;DHT22;3089;48.202;11.510;2023-08-30T10:57:35;17.60;99.90
6118;DHT22;3089;48.202;11.510;2023-08-30T11:00:05;17.40;99.90
6118;DHT22;3089;48.202;11.510;2023-08-30T11:02:34;17.40;99.90
6118;DHT22;3089;48.202;11.510;2023-08-30T11:05:04;17.30;99.90
6118;DHT22;3089;48.202;11.510;2023-08-30T11:07:33;17.20;99.90
6118;DHT22;3089;48.202;11.510;2023-08-30T11:10:01;17.40;99.90
6118;DHT22;3089;48.202;11.510;2023-08-30T11:12:31;17.20;99.90
6118;DHT22;3089;48.202;11.510;2023-08-30T11:14:59;16.60;99.90
6118;DHT22;3089;48.202;11.510;2023-08-30T11:17:33;16.40;99.90
6118;DHT22;3089;48.202;11.510;2023-08-30T11:20:08;16.40;99.90
6118;DHT22;3089;48.202;11.510;2023-08-30T11:22:37;16.40;99.90
6118;DHT22;3089;48.202;11.510;2023-08-30T11:25:07;16.40;99.90
6118;DHT22;3089;48.202;11.510;2023-08-30T11:27:36;16.40;99.90
6118;DHT22;3089;48.202;11.510;2023-08-30T11:30:05;16.50;99.90
6118;DHT22;3089;48.202;11.510;2023-08-30T11:32:35;16.50;99.90
6118;DHT22;3089;48.202;11.510;2023-08-30T11:35:03;16.80;99.90
6118;DHT22;3089;48.202;11.510;2023-08-30T11:37:32;17.20;99.90
6118;DHT22;3089;48.202;11.510;2023-08-30T11:40:01;17.50;99.90
6118;DHT22;3089;48.202;11.510;2023-08-30T11:42:30;17.80;99.90
6118;DHT22;3089;48.202;11.510;2023-08-30T11:44:59;17.80;99.90
6118;DHT22;3089;48.202;11.510;2023-08-30T11:47:28;17.70;99.90
6118;DHT22;3089;48.202;11.510;2023-08-30T11:49:57;17.80;99.90
6118;DHT22;3089;48.202;11.510;2023-08-30T11:52:26;18.00;99.90
6118;DHT22;3089;48.202;11.510;2023-08-30T11:54:54;18.00;99.90
6118;DHT22;3089;48.202;11.510;2023-08-30T11:57:22;18.20;99.90
6118;DHT22;3089;48.202;11.510;2023-08-30T11:59:50;18.30;99.90
6118;DHT22;3089;48.202;11.510;2023-08-30T12:02:19;18.30;99.90
6118;DHT22;3089;48.202;11.510;2023-08-30T12:04:48;18.40;99.90
6118;DHT22;3089;48.202;11.510;2023-08-30T12:07:22;18.40;99.90
6118;DHT22;3089;48.202;11.510;2023-08-30T12:09:51;18.10;99.90
6118;DHT22;3089;48.202;11.510;2023-08-30T12:12:19;17.80;99.90
6118;DHT22;3089;48.202;11.510;2023-08-30T12:14:54;18.10;99.90
6118;DHT22;3089;48.202;11.510;2023-08-30T12:17:24;18.00;99.90
6118;DHT22;3089;48.202;11.510;2023-08-30T12:19:55;17.80;99.90
6118;DHT22;3089;48.202;11.510;2023-08-30T12:22:23;18.10;99.90
6118;DHT22;3089;48.202;11.510;2023-08-30T12:24:51;18.50;99.90
6118;DHT22;3089;48.202;11.510;2023-08-30T12:27:19;18.60;99.90
6118;DHT22;3089;48.202;11.510;2023-08-30T12:29:47;18.50;99.90
6118;DHT22;3089;48.202;11.510;2023-08-30T12:32:15;18.50;99.90
6118;DHT22;3089;48.202;11.510;2023-08-30T12:34:44;18.30;99.90
6118;DHT22;3089;48.202;11.510;2023-08-30T12:37:12;18.10;99.90
6118;DHT22;3089;48.202;11.510;2023-08-30T12:39:40;18.30;99.90
6118;DHT22;3089;48.202;11.510;2023-08-30T12:42:09;18.60;99.90
6118;DHT22;3089;48.202;11.510;2023-08-30T12:44:38;18.70;99.90
6118;DHT22;3089;48.202;11.510;2023-08-30T12:47:06;18.50;99.90
6118;DHT22;3089;48.202;11.510;2023-08-30T12:49:34;18.20;99.90
6118;DHT22;3089;48.202;11.510;2023-08-30T12:52:03;18.10;99.90
6118;DHT22;3089;48.202;11.510;2023-08-30T12:54:31;18.10;99.90
6118;DHT22;3089;48.202;11.510;2023-08-30T12:56:59;17.80;99.90
6118;DHT22;3089;48.202;11.510;2023-08-30T12:59:27;17.90;99.90
6118;DHT22;3089;48.202;11.510;2023-08-30T13:01:55;17.80;99.90
6118;DHT22;3089;48.202;11.510;2023-08-30T13:04:23;17.60;99.90
6118;DHT22;3089;48.202;11.510;2023-08-30T13:06:51;17.50;99.90
6118;DHT22;3089;48.202;11.510;2023-08-30T13:09:20;17.30;99.90
6118;DHT22;3089;48.202;11.510;2023-08-30T13:11:48;17.30;99.90
6118;DHT22;3089;48.202;11.510;2023-08-30T13:14:16;17.50;99.90
6118;DHT22;3089;48.202;11.510;2023-08-30T13:16:44;17.40;99.90
6118;DHT22;3089;48.202;11.510;2023-08-30T13:19:12;17.40;99.90
6118;DHT22;3089;48.202;11.510;2023-08-30T13:21:40;17.20;99.90
6118;DHT22;3089;48.202;11.510;2023-08-30T13:24:09;17.10;99.90
6118;DHT22;3089;48.202;11.510;2023-08-30T13:26:38;17.10;99.90
6118;DHT22;3089;48.202;11.510;2023-08-30T13:29:06;17.30;99.90
6118;DHT22;3089;48.202;11.510;2023-08-30T13:31:34;17.20;99.90
6118;DHT22;3089;48.202;11.510;2023-08-30T13:34:02;17.30;99.90
6118;DHT22;3089;48.202;11.510;2023-08-30T13:36:30;17.30;99.90
6118;DHT22;3089;48.202;11.510;2023-08-30T13:38:59;17.20;99.90
6118;DHT22;3089;48.202;11.510;2023-08-30T13:41:27;17.20;99.90
6118;DHT22;3089;48.202;11.510;2023-08-30T13:43:56;17.30;99.90
6118;DHT22;3089;48.202;11.510;2023-08-30T13:46:28;17.30;99.90
6118;DHT22;3089;48.202;11.510;2023-08-30T13:48:56;17.30;99.90
6118;DHT22;3089;48.202;11.510;2023-08-30T13:51:25;17.30;99.90
6118;DHT22;3089;48.202;11.510;2023-08-30T13:53:53;17.30;99.90
6118;DHT22;3089;48.202;11.510;2023-08-30T13:56:23;17.30;99.90
6118;DHT22;3089;48.202;11.510;2023-08-30T13:58:51;17.40;99.90
6118;DHT22;3089;48.202;11.510;2023-08-30T14:01:20;17.30;99.90
6118;DHT22;3089;48.202;11.510;2023-08-30T14:03:48;17.40;99.90
6118;DHT22;3089;48.202;11.510;2023-08-30T14:06:16;17.40;99.90
6118;DHT22;3089;48.202;11.510;2023-08-30T14:08:43;17.30;99.90
6118;DHT22;3089;48.202;11.510;2023-08-30T14:11:11;17.30;99.90
6118;DHT22;3089;48.202;11.510;2023-08-30T14:13:40;17.30;99.90
6118;DHT22;3089;48.202;11.510;2023-08-30T14:16:08;17.40;99.90
6118;DHT22;3089;48.202;11.510;2023-08-30T14:18:38;17.30;99.90
6118;DHT22;3089;48.202;11.510;2023-08-30T14:21:06;17.20;99.90
6118;DHT22;3089;48.202;11.510;2023-08-30T14:23:34;17.20;99.90
6118;DHT22;3089;48.202;11.510;2023-08-30T14:26:04;17.30;99.90
6118;DHT22;3089;48.202;11.510;2023-08-30T14:28:35;17.40;99.90
6118;DHT22;3089;48.202;11.510;2023-08-30T14:31:06;17.50;99.90
6118;DHT22;3089;48.202;11.510;2023-08-30T14:33:34;17.60;99.90
6118;DHT22;3089;48.202;11.510;2023-08-30T14:36:08;17.60;99.90
6118;DHT22;3089;48.202;11.510;2023-08-30T14:38:37;17.60;99.90
6118;DHT22;3089;48.202;11.510;2023-08-30T14:41:05;17.60;99.90
6118;DHT22;3089;48.202;11.510;2023-08-30T14:43:33;17.80;99.90
6118;DHT22;3089;48.202;11.510;2023-08-30T14:46:01;17.70;99.90
6118;DHT22;3089;48.202;11.510;2023-08-30T14:48:36;17.80;99.90
6118;DHT22;3089;48.202;11.510;2023-08-30T14:51:06;17.80;99.90
6118;DHT22;3089;48.202;11.510;2023-08-30T14:53:34;17.80;99.90
6118;DHT22;3089;48.202;11.510;2023-08-30T14:56:02;17.70;99.90
6118;DHT22;3089;48.202;11.510;2023-08-30T14:58:34;17.60;99.90
6118;DHT22;3089;48.202;11.510;2023-08-30T15:01:03;17.50;99.90
6118;DHT22;3089;48.202;11.510;2023-08-30T15:03:31;17.50;99.90
6118;DHT22;3089;48.202;11.510;2023-08-30T15:06:00;17.50;99.90
6118;DHT22;3089;48.202;11.510;2023-08-30T15:08:29;17.60;99.90
6118;DHT22;3089;48.202;11.510;2023-08-30T15:10:58;17.70;99.90
6118;DHT22;3089;48.202;11.510;2023-08-30T15:13:26;17.50;99.90
6118;DHT22;3089;48.202;11.510;2023-08-30T15:15:54;17.60;99.90
6118;DHT22;3089;48.202;11.510;2023-08-30T15:18:22;17.50;99.90
6118;DHT22;3089;48.202;11.510;2023-08-30T15:20:51;17.60;99.90
6118;DHT22;3089;48.202;11.510;2023-08-30T15:23:20;17.50;99.90
6118;DHT22;3089;48.202;11.510;2023-08-30T15:25:49;17.60;99.90
6118;DHT22;3089;48.202;11.510;2023-08-30T15:28:17;17.60;99.90
6118;DHT22;3089;48.202;11.510;2023-08-30T15:30:46;17.50;99.90
6118;DHT22;3089;48.202;11.510;2023-08-30T15:33:15;17.50;99.90
6118;DHT22;3089;48.202;11.510;2023-08-30T15:36:03;17.50;99.90
6118;DHT22;3089;48.202;11.510;2023-08-30T15:38:31;17.40;99.90
6118;DHT22;3089;48.202;11.510;2023-08-30T15:41:06;17.30;99.90
6118;DHT22;3089;48.202;11.510;2023-08-30T15:43:36;17.30;99.90
6118;DHT22;3089;48.202;11.510;2023-08-30T15:46:06;17.30;99.90
6118;DHT22;3089;48.202;11.510;2023-08-30T15:48:35;17.20;99.90
6118;DHT22;3089;48.202;11.510;2023-08-30T15:51:03;17.20;99.90
6118;DHT22;3089;48.202;11.510;2023-08-30T15:53:38;17.10;99.90
6118;DHT22;3089;48.202;11.510;2023-08-30T15:56:09;17.10;99.90